createdAt,value
2022-11-22T00:00:45.738Z,17.90
2022-11-22T00:03:13.277Z,17.40
2022-11-22T00:05:40.785Z,17.75
2022-11-22T00:08:08.918Z,17.08
2022-11-22T00:10:36.393Z,15.80
2022-11-22T00:13:04.870Z,16.42
2022-11-22T00:15:32.429Z,17.08
2022-11-22T00:18:00.091Z,16.55
2022-11-22T00:20:28.158Z,15.82
2022-11-22T00:22:57.258Z,16.33
2022-11-22T00:25:24.888Z,15.10
2022-11-22T00:27:52.792Z,16.20
2022-11-22T00:30:20.609Z,16.98
2022-11-22T00:32:48.306Z,17.45
2022-11-22T00:35:15.783Z,18.02
2022-11-22T00:37:43.333Z,17.27
2022-11-22T00:40:11.114Z,16.83
2022-11-22T00:42:38.620Z,17.25
2022-11-22T00:45:06.585Z,17.95
2022-11-22T00:47:34.092Z,18.77
2022-11-22T00:50:01.545Z,18.30
2022-11-22T00:52:29.002Z,19.17
2022-11-22T00:54:56.622Z,18.35
2022-11-22T00:57:24.103Z,18.17
2022-11-22T00:59:51.985Z,17.75
2022-11-22T01:02:19.513Z,19.08
2022-11-22T01:04:47.422Z,17.13
2022-11-22T01:07:15.019Z,17.77
2022-11-22T01:09:42.613Z,18.15
2022-11-22T01:12:10.396Z,17.02
2022-11-22T01:14:37.914Z,17.85
2022-11-22T01:17:05.514Z,17.33
2022-11-22T01:19:33.155Z,17.05
2022-11-22T01:22:00.692Z,16.17
2022-11-22T01:24:28.242Z,16.70
2022-11-22T01:26:56.073Z,17.58
2022-11-22T01:29:24.022Z,16.10
2022-11-22T01:31:51.451Z,16.80
2022-11-22T01:34:19.067Z,15.93
2022-11-22T01:36:46.535Z,15.35
2022-11-22T01:39:13.969Z,15.85
2022-11-22T01:41:41.445Z,15.38
2022-11-22T01:44:42.709Z,15.95
2022-11-22T01:47:21.434Z,15.52
2022-11-22T01:49:54.309Z,16.15
2022-11-22T01:52:26.268Z,15.47
2022-11-22T01:55:06.840Z,16.17
2022-11-22T01:57:37.919Z,17.02
2022-11-22T02:00:09.373Z,16.10
2022-11-22T02:02:47.170Z,15.35
2022-11-22T02:05:18.235Z,15.60
2022-11-22T02:07:53.014Z,16.45
2022-11-22T02:10:25.193Z,16.88
2022-11-22T02:12:54.751Z,17.63
2022-11-22T02:15:22.178Z,17.35
2022-11-22T02:17:49.695Z,17.83
2022-11-22T02:20:18.047Z,16.73
2022-11-22T02:22:48.643Z,16.25
2022-11-22T02:25:21.579Z,15.63
2022-11-22T02:27:50.498Z,16.55
2022-11-22T02:30:18.367Z,15.73
2022-11-22T02:32:46.067Z,15.68
2022-11-22T02:35:26.622Z,14.85
2022-11-22T02:38:02.293Z,15.85
2022-11-22T02:40:40.514Z,14.80
2022-11-22T02:43:28.283Z,14.85
2022-11-22T02:45:56.173Z,16.02
2022-11-22T02:48:23.861Z,17.17
2022-11-22T02:50:51.376Z,16.13
2022-11-22T02:53:18.794Z,15.20
2022-11-22T02:55:46.271Z,15.57
2022-11-22T02:58:13.764Z,16.90
2022-11-22T03:00:41.358Z,16.77
2022-11-22T03:03:08.904Z,15.82
2022-11-22T03:05:36.319Z,16.13
2022-11-22T03:08:03.893Z,16.92
2022-11-22T03:10:31.740Z,17.02
2022-11-22T03:12:59.806Z,16.48
2022-11-22T03:15:27.230Z,16.73
2022-11-22T03:18:02.187Z,16.13
2022-11-22T03:20:30.595Z,15.90
2022-11-22T03:23:00.763Z,16.63
2022-11-22T03:25:28.795Z,16.13
2022-11-22T03:27:56.403Z,15.05
2022-11-22T03:30:23.853Z,17.00
2022-11-22T03:32:51.353Z,16.88
2022-11-22T03:35:18.890Z,15.57
2022-11-22T03:37:46.544Z,16.38
2022-11-22T03:40:14.083Z,15.20
2022-11-22T03:42:41.526Z,15.57
2022-11-22T03:45:09.390Z,15.25
2022-11-22T03:47:36.834Z,16.55
2022-11-22T03:50:05.618Z,16.38
2022-11-22T03:52:33.151Z,15.60
2022-11-22T03:55:00.633Z,15.43
2022-11-22T03:57:28.256Z,15.38
2022-11-22T03:59:55.744Z,16.45
2022-11-22T04:02:23.304Z,15.18
2022-11-22T04:04:50.774Z,15.25
2022-11-22T04:07:18.572Z,13.82
2022-11-22T04:09:46.100Z,14.50
2022-11-22T04:12:13.644Z,14.55
2022-11-22T04:14:59.904Z,13.20
2022-11-22T04:17:45.913Z,14.30
2022-11-22T04:20:37.763Z,12.80
2022-11-22T04:23:07.924Z,12.95
2022-11-22T04:25:37.675Z,13.27
2022-11-22T04:28:07.040Z,13.48
2022-11-22T04:30:55.035Z,13.95
2022-11-22T04:33:23.512Z,14.82
2022-11-22T04:35:52.113Z,14.60
2022-11-22T04:38:19.583Z,13.68
2022-11-22T04:40:47.294Z,13.32
2022-11-22T04:43:41.547Z,13.88
2022-11-22T04:48:37.174Z,14.82
2022-11-22T04:51:24.415Z,14.98
2022-11-22T04:53:52.003Z,15.95
2022-11-22T04:56:19.522Z,15.57
2022-11-22T04:58:47.035Z,16.02
2022-11-22T05:01:14.670Z,15.55
2022-11-22T05:03:42.172Z,15.00
2022-11-22T05:06:13.466Z,15.70
2022-11-22T05:08:41.012Z,16.65
2022-11-22T05:11:08.497Z,16.27
2022-11-22T05:13:38.992Z,14.95
2022-11-22T05:16:09.673Z,16.30
2022-11-22T05:18:37.930Z,15.82
2022-11-22T05:21:15.139Z,15.85
2022-11-22T05:23:54.671Z,14.75
2022-11-22T05:26:26.384Z,14.23
2022-11-22T05:28:54.284Z,15.02
2022-11-22T05:31:24.224Z,15.52
2022-11-22T05:33:53.973Z,14.77
2022-11-22T05:36:22.452Z,13.75
2022-11-22T05:38:50.242Z,14.55
2022-11-22T05:41:18.495Z,14.55
2022-11-22T05:43:46.186Z,14.82
2022-11-22T05:46:24.727Z,14.10
2022-11-22T05:48:54.826Z,13.80
2022-11-22T05:51:33.533Z,13.98
2022-11-22T05:54:02.505Z,14.65
2022-11-22T05:56:30.104Z,14.98
2022-11-22T05:58:57.713Z,15.02
2022-11-22T06:01:25.907Z,15.38
2022-11-22T06:03:54.563Z,14.93
2022-11-22T06:06:22.110Z,15.13
2022-11-22T06:08:51.307Z,15.45
2022-11-22T06:11:23.862Z,16.13
2022-11-22T06:13:53.626Z,17.48
2022-11-22T06:16:22.104Z,16.13
2022-11-22T06:18:50.174Z,16.02
2022-11-22T06:21:20.163Z,17.55
2022-11-22T06:23:47.698Z,16.95
2022-11-22T06:26:17.656Z,16.00
2022-11-22T06:28:46.694Z,16.30
2022-11-22T06:31:16.761Z,16.17
2022-11-22T06:33:44.921Z,17.25
2022-11-22T06:36:14.666Z,17.77
2022-11-22T06:38:43.509Z,17.30
2022-11-22T06:41:22.202Z,16.42
2022-11-22T06:43:51.235Z,16.98
2022-11-22T06:46:21.042Z,16.13
2022-11-22T06:48:49.267Z,16.63
2022-11-22T06:51:25.291Z,16.33
2022-11-22T06:53:56.715Z,16.75
2022-11-22T06:56:29.994Z,16.45
2022-11-22T06:58:58.052Z,16.58
2022-11-22T07:01:28.593Z,16.77
2022-11-22T07:03:58.703Z,16.83
2022-11-22T07:06:28.696Z,16.63
2022-11-22T07:08:56.227Z,17.02
2022-11-22T07:11:25.978Z,15.85
2022-11-22T07:13:54.904Z,16.90
2022-11-22T07:16:22.713Z,17.17
2022-11-22T07:18:50.665Z,17.23
2022-11-22T07:21:21.726Z,16.75
2022-11-22T07:23:51.561Z,16.50
2022-11-22T07:26:21.296Z,16.02
2022-11-22T07:28:49.160Z,18.30
2022-11-22T07:31:17.685Z,17.88
2022-11-22T07:33:45.391Z,17.50
2022-11-22T07:36:18.452Z,17.52
2022-11-22T07:38:46.506Z,16.77
2022-11-22T07:41:15.022Z,15.88
2022-11-22T07:43:42.650Z,17.10
2022-11-22T07:46:29.436Z,17.27
2022-11-22T07:49:01.578Z,16.70
2022-11-22T07:51:29.853Z,17.73
2022-11-22T07:54:00.185Z,17.27
2022-11-22T07:56:27.636Z,17.05
2022-11-22T07:58:55.304Z,16.55
2022-11-22T08:01:23.768Z,16.27
2022-11-22T08:03:51.412Z,16.05
2022-11-22T08:06:18.933Z,17.48
2022-11-22T08:08:46.505Z,16.38
2022-11-22T08:11:14.033Z,16.75
2022-11-22T08:13:41.767Z,16.55
2022-11-22T08:16:12.045Z,17.02
2022-11-22T08:18:40.739Z,16.02
2022-11-22T08:21:12.883Z,17.13
2022-11-22T08:23:41.861Z,16.30
2022-11-22T08:26:12.708Z,16.23
2022-11-22T08:28:41.270Z,17.17
2022-11-22T08:31:12.524Z,16.45
2022-11-22T08:33:41.115Z,15.77
2022-11-22T08:36:09.153Z,14.95
2022-11-22T08:38:36.832Z,15.73
2022-11-22T08:41:06.595Z,15.98
2022-11-22T08:43:34.485Z,16.02
2022-11-22T08:46:02.371Z,14.65
2022-11-22T08:48:32.156Z,15.13
2022-11-22T08:51:07.747Z,15.85
2022-11-22T08:53:38.503Z,15.20
2022-11-22T08:56:09.754Z,15.10
2022-11-22T08:58:38.085Z,15.50
2022-11-22T09:01:14.597Z,15.35
2022-11-22T09:03:43.162Z,14.27
2022-11-22T09:09:22.617Z,14.40
2022-11-22T09:11:50.769Z,13.80
2022-11-22T09:14:18.224Z,14.73
2022-11-22T09:16:45.699Z,14.20
2022-11-22T09:19:13.493Z,14.10
2022-11-22T09:21:40.934Z,14.48
2022-11-22T09:24:08.474Z,14.88
2022-11-22T09:26:36.124Z,14.95
2022-11-22T09:29:03.743Z,15.73
2022-11-22T09:31:31.533Z,13.23
2022-11-22T09:33:58.973Z,13.93
2022-11-22T09:36:26.774Z,12.90
2022-11-22T09:38:56.258Z,12.02
2022-11-22T09:41:42.712Z,13.23
2022-11-22T09:44:31.220Z,11.90
2022-11-22T09:47:21.372Z,12.50
2022-11-22T09:50:00.908Z,13.50
2022-11-22T09:52:38.564Z,13.55
2022-11-22T09:55:24.201Z,13.93
2022-11-22T09:58:06.113Z,12.95
2022-11-22T10:00:35.188Z,12.40
2022-11-22T10:03:05.234Z,13.18
2022-11-22T10:05:41.574Z,13.02
2022-11-22T10:08:20.774Z,12.38
2022-11-22T10:10:53.339Z,13.10
2022-11-22T10:13:28.692Z,13.23
2022-11-22T10:16:31.300Z,12.95
2022-11-22T10:19:16.931Z,12.85
2022-11-22T10:21:48.134Z,12.40
2022-11-22T10:24:18.471Z,12.43
2022-11-22T10:26:46.999Z,12.43
2022-11-22T10:29:14.454Z,14.07
2022-11-22T10:31:52.584Z,14.93
2022-11-22T10:34:32.148Z,15.07
2022-11-22T10:37:13.860Z,15.93
2022-11-22T10:39:55.720Z,16.52
2022-11-22T10:42:23.204Z,16.95
2022-11-22T10:45:22.854Z,16.27
2022-11-22T10:48:26.309Z,15.55
2022-11-22T10:51:19.493Z,16.05
2022-11-22T10:54:13.854Z,16.40
2022-11-22T10:59:38.572Z,16.58
2022-11-22T11:02:35.815Z,17.55
2022-11-22T11:05:09.194Z,15.68
2022-11-22T11:07:41.810Z,17.20
2022-11-22T11:10:27.851Z,17.23
2022-11-22T11:13:05.003Z,16.42
2022-11-22T11:15:44.867Z,17.90
2022-11-22T11:18:24.973Z,17.25
2022-11-22T11:20:53.829Z,17.65
2022-11-22T11:23:21.264Z,17.08
2022-11-22T11:25:49.552Z,16.88
2022-11-22T11:28:26.235Z,17.65
2022-11-22T11:31:08.169Z,20.65
2022-11-22T11:33:38.704Z,18.73
2022-11-22T11:36:14.406Z,22.67
2022-11-22T11:38:41.833Z,23.48
2022-11-22T11:41:40.213Z,25.02
2022-11-22T11:44:29.429Z,24.73
2022-11-22T11:46:57.732Z,24.05
2022-11-22T11:49:33.496Z,24.23
2022-11-22T11:52:08.760Z,25.30
2022-11-22T11:54:39.413Z,25.02
2022-11-22T11:57:30.912Z,24.02
2022-11-22T12:00:02.032Z,23.80
2022-11-22T12:02:42.937Z,26.02
2022-11-22T12:05:32.196Z,26.23
2022-11-22T12:08:01.340Z,24.00
2022-11-22T12:10:49.873Z,23.95
2022-11-22T12:14:04.672Z,24.63
2022-11-22T12:16:40.124Z,23.35
2022-11-22T12:19:38.474Z,22.92
2022-11-22T12:22:42.754Z,23.23
2022-11-22T12:25:40.653Z,22.55
2022-11-22T12:28:20.393Z,21.98
2022-11-22T12:31:14.806Z,21.10
2022-11-22T12:33:56.376Z,19.30
2022-11-22T12:36:40.274Z,20.58
2022-11-22T12:41:41.850Z,19.58
2022-11-22T12:44:16.804Z,20.77
2022-11-22T12:46:52.643Z,18.70
2022-11-22T12:49:49.480Z,18.75
2022-11-22T12:52:39.491Z,20.05
2022-11-22T12:55:23.964Z,20.33
2022-11-22T12:57:59.923Z,19.35
2022-11-22T13:00:32.470Z,19.17
2022-11-22T13:03:13.084Z,20.70
2022-11-22T13:05:46.123Z,19.92
2022-11-22T13:08:37.325Z,21.40
2022-11-22T13:11:40.283Z,20.23
2022-11-22T13:14:20.820Z,20.50
2022-11-22T13:16:51.884Z,20.52
2022-11-22T13:19:24.036Z,20.75
2022-11-22T13:22:36.142Z,20.77
2022-11-22T13:25:24.634Z,18.98
2022-11-22T13:27:53.282Z,19.48
2022-11-22T13:30:29.795Z,18.42
2022-11-22T13:33:00.964Z,19.60
2022-11-22T13:35:36.893Z,19.42
2022-11-22T13:38:15.184Z,19.92
2022-11-22T13:40:50.633Z,19.60
2022-11-22T13:43:22.350Z,19.17
2022-11-22T13:45:54.795Z,18.98
2022-11-22T13:48:40.855Z,19.13
2022-11-22T13:51:14.436Z,17.85
2022-11-22T13:53:44.144Z,20.05
2022-11-22T13:56:20.644Z,18.27
2022-11-22T13:58:51.046Z,17.73
2022-11-22T14:01:34.167Z,18.67
2022-11-22T14:04:16.906Z,18.10
2022-11-22T14:06:48.923Z,18.30
2022-11-22T14:09:55.085Z,17.95
2022-11-22T14:12:43.453Z,18.05
2022-11-22T14:15:11.026Z,17.13
2022-11-22T14:17:57.181Z,17.70
2022-11-22T14:20:53.041Z,18.70
2022-11-22T14:23:57.200Z,17.80
2022-11-22T14:26:50.924Z,17.23
2022-11-22T14:29:49.394Z,16.80
2022-11-22T14:32:23.851Z,16.17
2022-11-22T14:35:06.405Z,15.85
2022-11-22T14:37:43.964Z,16.85
2022-11-22T14:40:31.528Z,16.55
2022-11-22T14:43:02.357Z,15.68
2022-11-22T14:46:00.675Z,15.98
2022-11-22T14:48:35.543Z,15.23
2022-11-22T14:51:25.720Z,16.20
2022-11-22T14:54:01.213Z,14.98
2022-11-22T14:56:34.472Z,15.07
2022-11-22T14:59:34.581Z,14.70
2022-11-22T15:02:36.775Z,14.60
2022-11-22T15:09:13.451Z,13.98
2022-11-22T15:09:14.903Z,13.23
2022-11-22T15:11:32.666Z,14.65
2022-11-22T15:14:09.272Z,14.00
2022-11-22T15:57:27.580Z,12.40
2022-11-22T15:59:55.826Z,12.85
2022-11-22T16:02:27.792Z,13.45
2022-11-22T16:06:07.515Z,13.02
2022-11-22T16:07:55.788Z,12.45
2022-11-22T16:10:45.741Z,12.73
2022-11-22T16:13:34.974Z,12.60
2022-11-22T16:16:06.952Z,12.48
2022-11-22T16:18:35.753Z,13.05
2022-11-22T16:21:12.320Z,12.48
2022-11-22T16:23:41.236Z,13.07
2022-11-22T16:26:20.582Z,12.73
2022-11-22T16:28:51.400Z,12.18
2022-11-22T16:31:25.573Z,12.77
2022-11-22T16:33:54.399Z,12.00
2022-11-22T16:36:24.054Z,13.13
2022-11-22T16:38:51.918Z,13.18
2022-11-22T16:41:21.901Z,13.63
2022-11-22T16:43:53.065Z,12.85
2022-11-22T16:46:20.804Z,13.82
2022-11-22T16:48:48.471Z,13.95
2022-11-22T16:51:23.032Z,12.48
2022-11-22T16:53:53.349Z,13.38
2022-11-22T16:56:26.629Z,12.60
2022-11-22T16:58:56.573Z,13.55
2022-11-22T17:01:26.887Z,13.45
2022-11-22T17:03:56.847Z,12.65
2022-11-22T17:06:26.372Z,13.50
2022-11-22T17:08:56.110Z,13.43
2022-11-22T17:11:26.734Z,12.23
2022-11-22T17:13:54.283Z,12.13
2022-11-22T17:16:21.866Z,12.75
2022-11-22T17:18:49.358Z,13.27
2022-11-22T17:21:27.869Z,12.70
2022-11-22T17:24:03.122Z,13.38
2022-11-22T17:26:32.571Z,12.73
2022-11-22T17:29:00.052Z,14.52
2022-11-22T17:31:28.365Z,14.18
2022-11-22T17:33:58.373Z,13.90
2022-11-22T17:36:31.233Z,15.75
2022-11-22T17:39:00.308Z,15.07
2022-11-22T17:41:28.063Z,15.13
2022-11-22T17:43:55.846Z,16.05
2022-11-22T17:46:23.813Z,15.60
2022-11-22T17:48:57.876Z,16.67
2022-11-22T17:51:27.223Z,16.33
2022-11-22T17:53:55.573Z,16.95
2022-11-22T17:56:23.003Z,17.25
2022-11-22T17:58:50.812Z,17.75
2022-11-22T18:01:20.632Z,18.50
2022-11-22T18:03:48.464Z,19.95
2022-11-22T18:06:17.413Z,19.52
2022-11-22T18:08:47.287Z,18.08
2022-11-22T18:11:16.331Z,19.13
2022-11-22T18:13:44.401Z,17.65
2022-11-22T18:16:14.802Z,18.70
2022-11-22T18:18:58.460Z,19.50
2022-11-22T18:21:31.030Z,19.55
2022-11-22T18:23:59.385Z,18.35
2022-11-22T18:26:42.860Z,20.63
2022-11-22T18:32:00.821Z,20.08
2022-11-22T18:34:29.423Z,19.60
2022-11-22T18:37:01.974Z,19.55
2022-11-22T18:39:32.782Z,20.17
2022-11-22T18:42:00.954Z,20.10
2022-11-22T18:44:28.380Z,20.15
2022-11-22T18:46:55.980Z,19.77
2022-11-22T18:49:23.534Z,19.23
2022-11-22T18:51:51.089Z,18.88
2022-11-22T18:54:18.679Z,18.77
2022-11-22T18:56:46.213Z,17.90
2022-11-22T18:59:13.744Z,17.48
2022-11-22T19:01:41.933Z,19.77
2022-11-22T19:04:14.462Z,17.13
2022-11-22T19:06:43.037Z,16.65
2022-11-22T19:09:11.245Z,16.25
2022-11-22T19:11:38.938Z,15.43
2022-11-22T19:14:06.712Z,15.43
2022-11-22T19:16:34.193Z,17.60
2022-11-22T19:19:02.098Z,16.75
2022-11-22T19:21:30.460Z,17.30
2022-11-22T19:23:58.203Z,15.90
2022-11-22T19:26:27.413Z,17.88
2022-11-22T19:28:56.616Z,17.00
2022-11-22T19:31:27.968Z,16.90
2022-11-22T19:33:55.805Z,17.98
2022-11-22T19:40:30.036Z,15.40
2022-11-22T19:42:57.695Z,16.63
2022-11-22T19:45:25.159Z,16.75
2022-11-22T19:47:52.609Z,16.77
2022-11-22T19:50:21.178Z,16.42
2022-11-22T19:52:48.649Z,16.88
2022-11-22T19:55:16.287Z,17.02
2022-11-22T19:57:43.760Z,15.95
2022-11-22T20:00:11.878Z,16.63
2022-11-22T20:02:39.348Z,15.13
2022-11-22T20:05:07.018Z,15.13
2022-11-22T20:07:34.721Z,14.73
2022-11-22T20:10:04.455Z,14.93
2022-11-22T20:12:31.950Z,15.02
2022-11-22T20:14:59.429Z,15.80
2022-11-22T20:17:27.059Z,15.00
2022-11-22T20:19:54.579Z,15.63
2022-11-22T20:22:22.250Z,14.38
2022-11-22T20:24:49.787Z,14.35
2022-11-22T20:27:24.374Z,14.38
2022-11-22T20:29:52.235Z,14.18
2022-11-22T20:32:19.850Z,14.07
2022-11-22T20:34:47.520Z,13.13
2022-11-22T20:37:15.109Z,13.32
2022-11-22T20:39:42.455Z,13.50
2022-11-22T20:42:33.758Z,14.23
2022-11-22T20:44:57.559Z,13.50
2022-11-22T20:47:25.207Z,13.23
2022-11-22T20:49:52.655Z,13.70
2022-11-22T20:52:20.630Z,12.50
2022-11-22T20:54:50.728Z,14.07
2022-11-22T20:57:18.300Z,12.85
2022-11-22T20:59:45.830Z,12.98
2022-11-22T21:02:13.239Z,12.38
2022-11-22T21:04:40.799Z,12.02
2022-11-22T21:07:08.246Z,12.63
2022-11-22T21:09:36.005Z,12.10
2022-11-22T21:12:03.879Z,12.80
2022-11-22T21:14:31.662Z,12.38
2022-11-22T21:17:16.300Z,11.75
2022-11-22T21:19:46.839Z,10.82
2022-11-22T21:22:14.349Z,11.00
2022-11-22T21:24:41.930Z,11.25
2022-11-22T21:27:09.448Z,10.43
2022-11-22T21:29:36.955Z,10.32
2022-11-22T21:32:04.544Z,11.02
2022-11-22T21:34:32.205Z,10.43
2022-11-22T21:36:59.830Z,11.13
2022-11-22T21:39:27.330Z,10.18
2022-11-22T21:41:54.995Z,10.27
2022-11-22T21:44:22.425Z,9.95
2022-11-22T21:46:51.359Z,9.27
2022-11-22T21:49:18.818Z,9.57
2022-11-22T21:51:48.045Z,9.25
2022-11-22T21:54:15.619Z,8.45
2022-11-22T21:56:43.031Z,8.23
2022-11-22T21:59:11.620Z,7.50
2022-11-22T22:01:39.255Z,7.18
2022-11-22T22:04:06.909Z,6.63
2022-11-22T22:06:34.335Z,7.00
2022-11-22T22:09:01.992Z,7.28
2022-11-22T22:11:29.398Z,6.95
2022-11-22T22:13:59.251Z,7.50
2022-11-22T22:16:26.819Z,6.57
2022-11-22T22:18:54.663Z,6.95
2022-11-22T22:21:22.246Z,6.15
2022-11-22T22:23:49.649Z,6.53
2022-11-22T22:26:18.080Z,7.05
2022-11-22T22:28:46.388Z,7.38
2022-11-22T22:31:17.534Z,7.20
2022-11-22T22:33:45.839Z,7.47
2022-11-22T22:36:14.398Z,7.38
2022-11-22T22:38:42.139Z,7.60
2022-11-22T22:41:12.381Z,7.30
2022-11-22T22:43:45.373Z,7.47
2022-11-22T22:46:21.311Z,8.00
2022-11-22T22:48:49.906Z,7.18
2022-11-22T22:51:20.590Z,7.22
2022-11-22T22:53:48.777Z,7.43
2022-11-22T22:56:18.401Z,7.63
2022-11-22T22:58:46.219Z,7.32
2022-11-22T23:01:15.285Z,7.45
2022-11-22T23:03:43.199Z,7.47
2022-11-22T23:06:12.070Z,7.18
2022-11-22T23:08:39.995Z,6.75
2022-11-22T23:11:11.255Z,6.85
2022-11-22T23:13:41.768Z,7.07
2022-11-22T23:16:11.839Z,6.43
2022-11-22T23:18:41.797Z,7.13
2022-11-22T23:21:12.759Z,6.97
2022-11-22T23:23:40.297Z,6.65
2022-11-22T23:26:10.189Z,6.88
2022-11-22T23:28:38.219Z,7.18
2022-11-22T23:31:11.657Z,6.60
2022-11-22T23:33:39.449Z,6.90
2022-11-22T23:36:09.594Z,7.38
2022-11-22T23:38:37.091Z,7.63
2022-11-22T23:41:05.292Z,7.13
2022-11-22T23:43:32.948Z,7.03
2022-11-22T23:46:00.481Z,7.57
2022-11-22T23:48:28.131Z,7.43
2022-11-22T23:50:55.911Z,7.68
2022-11-22T23:53:23.445Z,7.72
2022-11-22T23:55:50.988Z,8.35
2022-11-22T23:58:18.620Z,7.85
